Time;durP1;ratioP1;P1;durP2;ratioP2;P2;SDS_P1;SDS_P2;PMS_P1;PMS_P2;Temp;Humidity;BMP_temperature;BMP_pressure;BME280_temperature;BME280_humidity;BME280_pressure;Samples;Min_cycle;Max_cycle;Signal;HPM_P1;HPM_P2
2022/09/24 00:01:18;;;;;;;2.92;2.62;;;;;;;10.34;77.61;99027.42;1637318;86;21146;-70
2022/09/24 00:03:56;;;;;;;3.02;2.40;;;;;;;10.34;77.61;99027.42;1646163;86;21022;-69
2022/09/24 00:06:22;;;;;;;4.17;2.00;;;;;;;10.33;77.70;99023.10;1638694;86;20871;-69
2022/09/24 00:08:53;;;;;;;2.50;2.30;;;;;;;10.30;77.76;99024.29;1645381;86;21275;-69
2022/09/24 00:11:22;;;;;;;2.40;2.20;;;;;;;10.32;77.81;99017.48;1651377;86;20903;-69
2022/09/24 00:13:49;;;;;;;2.27;2.10;;;;;;;10.30;77.79;99013.66;1642507;86;20943;-67
2022/09/24 00:16:18;;;;;;;2.65;2.45;;;;;;;10.30;77.77;99020.30;1649572;86;21519;-68
2022/09/24 00:18:45;;;;;;;2.85;2.65;;;;;;;10.32;77.83;99011.67;1656424;84;20969;-69
2022/09/24 00:21:16;;;;;;;4.25;2.60;;;;;;;10.34;77.86;99014.13;1649243;86;21759;-67
2022/09/24 00:23:42;;;;;;;4.22;3.02;;;;;;;10.36;77.84;99016.94;1640980;86;21071;-68
2022/09/24 00:28:57;;;;;;;3.37;3.00;;;;;;;10.36;77.83;99010.78;1659307;86;21010;-70
2022/09/24 00:31:24;;;;;;;4.08;3.77;;;;;;;10.38;77.82;99008.77;1661321;86;21071;-68
2022/09/24 00:33:52;;;;;;;5.25;4.10;;;;;;;10.38;77.83;99006.11;1646179;86;21268;-69
2022/09/24 00:36:20;;;;;;;4.25;3.90;;;;;;;10.42;77.83;99006.09;1647777;86;21626;-68
2022/09/24 00:38:55;;;;;;;3.83;3.52;;;;;;;10.41;77.77;98997.27;1665606;86;21034;-69
2022/09/24 00:41:24;;;;;;;3.95;3.65;;;;;;;10.40;77.69;99011.56;1652414;86;20950;-70
2022/09/24 00:43:51;;;;;;;4.25;3.85;;;;;;;10.36;77.73;99008.13;1659335;86;20936;-68
2022/09/24 00:46:39;;;;;;;4.62;4.22;;;;;;;10.33;77.83;99007.98;1635063;86;21829;-69
2022/09/24 00:49:16;;;;;;;4.25;3.85;;;;;;;10.32;77.89;99009.01;1650624;86;20981;-69
2022/09/24 00:51:46;;;;;;;3.95;3.27;;;;;;;10.31;77.93;99007.34;1647198;86;20993;-69
2022/09/24 00:54:16;;;;;;;3.92;3.45;;;;;;;10.32;78.04;99001.03;1642782;86;21005;-68
2022/09/24 00:56:44;;;;;;;3.77;3.42;;;;;;;10.34;78.05;99003.00;1660744;86;20997;-68
2022/09/24 00:59:15;;;;;;;3.67;3.37;;;;;;;10.32;78.14;98998.38;1660165;86;21154;-68
2022/09/24 01:01:41;;;;;;;3.85;3.30;;;;;;;10.33;78.18;99003.16;1638650;86;20966;-67
2022/09/24 01:04:08;;;;;;;3.40;3.10;;;;;;;10.32;78.17;99004.19;1643381;86;20915;-69
2022/09/24 01:06:36;;;;;;;2.62;2.50;;;;;;;10.29;78.18;99003.22;1663750;86;21029;-69
2022/09/24 01:09:03;;;;;;;2.85;2.52;;;;;;;10.27;78.25;98998.59;1665475;86;20945;-69
2022/09/24 01:11:36;;;;;;;2.70;2.50;;;;;;;10.26;78.36;99001.74;1647534;86;21432;-68
2022/09/24 01:14:31;;;;;;;3.98;2.92;;;;;;;10.27;78.35;98999.91;1654451;86;21454;-69
2022/09/24 01:17:06;;;;;;;3.00;2.72;;;;;;;10.26;78.42;98999.58;1638242;86;21079;-69
2022/09/24 01:20:11;;;;;;;3.05;2.75;;;;;;;10.26;78.42;99003.57;1653806;86;21048;-69
2022/09/24 01:22:59;;;;;;;2.90;2.35;;;;;;;10.22;78.43;99000.43;1650399;86;21098;-67
2022/09/24 01:25:49;;;;;;;2.92;2.60;;;;;;;10.19;78.48;99005.30;1650504;86;21181;-68
2022/09/24 01:29:02;;;;;;;2.40;2.20;;;;;;;10.14;78.53;99007.14;1652072;86;21606;-69
2022/09/24 01:31:34;;;;;;;3.85;2.20;;;;;;;10.10;78.57;99008.48;1643684;86;22229;-69
2022/09/24 01:34:04;;;;;;;2.85;2.60;;;;;;;10.04;78.60;99006.53;1630959;86;20927;-69
2022/09/24 01:36:35;;;;;;;2.55;2.35;;;;;;;9.97;78.63;99010.08;1641037;85;21018;-68
2022/09/24 01:39:02;;;;;;;2.40;2.20;;;;;;;9.92;78.76;99011.45;1655601;86;22073;-69
2022/09/24 01:41:28;;;;;;;2.30;2.10;;;;;;;9.90;78.82;99008.65;1621133;86;21485;-69
2022/09/24 01:43:55;;;;;;;1.98;1.75;;;;;;;9.85;78.90;99011.81;1665670;86;21568;-69
2022/09/24 01:46:21;;;;;;;2.40;2.10;;;;;;;9.84;79.00;99003.53;1617614;87;20970;-68
2022/09/24 01:48:49;;;;;;;2.30;2.02;;;;;;;9.83;79.07;99007.68;1652751;86;20973;-69
2022/09/24 01:51:24;;;;;;;2.12;1.92;;;;;;;9.82;79.16;99010.87;1644767;86;21275;-70
2022/09/24 01:54:19;;;;;;;3.20;2.12;;;;;;;9.81;79.28;99004.38;1639578;86;21520;-69
2022/09/24 01:56:52;;;;;;;2.15;1.95;;;;;;;9.81;79.36;99011.02;1643893;86;21065;-69
2022/09/24 01:59:34;;;;;;;2.22;2.02;;;;;;;9.80;79.53;99010.72;1636789;86;20978;-70
2022/09/24 02:02:27;;;;;;;2.40;2.20;;;;;;;9.79;79.63;99007.23;1633501;86;21421;-69
2022/09/24 02:05:11;;;;;;;2.85;2.10;;;;;;;9.80;79.72;99002.75;1647630;86;21200;-71
2022/09/24 02:07:45;;;;;;;3.00;2.25;;;;;;;9.81;79.78;98999.07;1646593;86;21058;-68
2022/09/24 02:10:15;;;;;;;2.50;2.30;;;;;;;9.84;79.78;99002.21;1633276;86;20976;-69
2022/09/24 02:12:43;;;;;;;3.10;1.95;;;;;;;9.85;79.77;99005.70;1633431;86;20919;-69
2022/09/24 02:15:24;;;;;;;2.33;2.05;;;;;;;9.86;79.74;99001.52;1638747;86;21079;-67
2022/09/24 02:17:54;;;;;;;2.25;2.08;;;;;;;9.84;79.79;98998.22;1651506;86;21187;-68
2022/09/24 02:20:21;;;;;;;2.55;2.33;;;;;;;9.87;79.78;99000.53;1656676;84;20959;-67
2022/09/24 02:22:49;;;;;;;2.22;2.00;;;;;;;9.91;79.70;99003.14;1642462;86;21026;-68
2022/09/24 02:25:20;;;;;;;2.40;1.82;;;;;;;9.92;79.65;99002.65;1645217;86;21370;-68
2022/09/24 02:27:46;;;;;;;2.10;1.90;;;;;;;9.91;79.62;99002.31;1641766;86;21058;-67
2022/09/24 02:30:13;;;;;;;2.30;2.10;;;;;;;9.90;79.60;99001.52;1660266;86;21317;-68
2022/09/24 02:32:40;;;;;;;2.65;2.40;;;;;;;9.88;79.62;98998.18;1650590;86;20867;-68
2022/09/24 02:35:09;;;;;;;2.87;2.37;;;;;;;9.87;79.68;99004.52;1644123;86;21013;-68
2022/09/24 02:37:41;;;;;;;3.45;2.22;;;;;;;9.88;79.67;99003.49;1636285;85;21030;-68
2022/09/24 02:40:11;;;;;;;2.15;1.95;;;;;;;9.88;79.63;98996.85;1635796;86;20970;-69
2022/09/24 02:42:38;;;;;;;2.05;1.90;;;;;;;9.88;79.51;99003.49;1631839;86;21890;-69
2022/09/24 02:45:06;;;;;;;2.42;2.00;;;;;;;9.90;79.48;98998.02;1631859;86;21036;-68
2022/09/24 02:47:33;;;;;;;2.33;1.80;;;;;;;9.92;79.42;99002.65;1635943;86;21027;-69
2022/09/24 02:49:59;;;;;;;2.47;2.27;;;;;;;9.93;79.44;99006.97;1634575;86;21461;-68
2022/09/24 02:52:26;;;;;;;3.00;2.22;;;;;;;9.93;79.41;99009.10;1613937;86;21509;-69
2022/09/24 02:54:55;;;;;;;4.67;2.08;;;;;;;9.91;79.38;99003.14;1610927;87;21030;-68
2022/09/24 02:57:22;;;;;;;2.72;2.42;;;;;;;9.89;79.35;99010.48;1646601;85;20935;-70
2022/09/24 02:59:49;;;;;;;2.55;2.35;;;;;;;9.86;79.41;99002.02;1657609;85;20934;-67
2022/09/24 03:02:15;;;;;;;2.60;2.15;;;;;;;9.87;79.49;99001.03;1681207;84;20964;-69
2022/09/24 03:04:42;;;;;;;2.33;2.12;;;;;;;9.87;79.52;98999.20;1692691;84;20941;-68
2022/09/24 03:07:13;;;;;;;1.92;1.82;;;;;;;9.89;79.61;98996.36;1676591;84;20881;-68
2022/09/24 03:09:39;;;;;;;1.98;1.87;;;;;;;9.90;79.59;99003.34;1688785;84;20941;-69
2022/09/24 03:12:05;;;;;;;2.60;2.20;;;;;;;9.94;79.55;98997.48;1680120;84;20958;-68
2022/09/24 03:14:32;;;;;;;3.15;2.02;;;;;;;9.97;79.49;99000.28;1684002;84;20984;-70
2022/09/24 03:16:59;;;;;;;2.75;2.08;;;;;;;9.98;79.45;98998.46;1685233;84;20937;-68
2022/09/24 03:19:25;;;;;;;2.45;1.87;;;;;;;9.98;79.41;99003.77;1678699;84;21264;-68
2022/09/24 03:21:52;;;;;;;5.85;2.33;;;;;;;9.94;79.37;98998.81;1674220;84;20953;-68
2022/09/24 03:24:19;;;;;;;2.30;2.10;;;;;;;9.91;79.27;99002.31;1670740;84;20993;-69
2022/09/24 03:26:46;;;;;;;2.02;1.90;;;;;;;9.85;79.27;99005.17;1673382;84;20991;-68
2022/09/24 03:29:12;;;;;;;5.12;2.25;;;;;;;9.80;79.30;99002.22;1673653;84;21070;-70
2022/09/24 03:31:39;;;;;;;3.25;1.92;;;;;;;9.79;79.46;99001.08;1686598;84;21269;-69
2022/09/24 03:34:05;;;;;;;2.80;2.10;;;;;;;9.79;79.54;99007.72;1684432;84;20909;-69
2022/09/24 03:36:32;;;;;;;2.37;2.17;;;;;;;9.78;79.64;99009.55;1690496;84;20890;-71
2022/09/24 03:38:59;;;;;;;2.00;1.80;;;;;;;9.77;79.61;99007.91;1701124;82;21142;-68
2022/09/24 03:41:27;;;;;;;2.62;2.08;;;;;;;9.77;79.69;99012.39;1702845;83;20978;-69
2022/09/24 03:43:56;;;;;;;2.50;2.27;;;;;;;9.77;79.69;99009.24;1691011;83;21238;-68
2022/09/24 03:46:28;;;;;;;2.50;2.30;;;;;;;9.79;79.74;99011.70;1691402;83;20938;-68
2022/09/24 03:48:51;;;;;;;2.52;2.10;;;;;;;9.80;79.77;99016.83;1705824;83;21081;-67
2022/09/24 03:51:18;;;;;;;1.95;1.85;;;;;;;9.81;79.77;99007.88;1690882;83;21213;-70
2022/09/24 03:53:46;;;;;;;2.85;1.92;;;;;;;9.80;79.73;99010.19;1709827;83;21020;-69
2022/09/24 03:56:14;;;;;;;4.30;2.58;;;;;;;9.80;79.68;99008.86;1706586;83;21272;-68
2022/09/24 03:58:46;;;;;;;2.42;2.22;;;;;;;9.81;79.80;99018.50;1690752;83;20892;-67
2022/09/24 04:01:11;;;;;;;3.20;2.25;;;;;;;9.81;79.88;99013.19;1702104;83;20942;-69
2022/09/24 04:03:39;;;;;;;3.30;2.20;;;;;;;9.81;79.90;99007.88;1692697;83;21011;-69
2022/09/24 04:06:07;;;;;;;2.05;1.95;;;;;;;9.80;79.94;99011.52;1699965;83;21053;-70
2022/09/24 04:08:34;;;;;;;2.37;2.15;;;;;;;9.80;80.07;99007.53;1703924;83;21803;-68
2022/09/24 04:11:01;;;;;;;2.30;2.10;;;;;;;9.83;80.13;99008.52;1711149;83;20921;-70
2022/09/24 04:13:29;;;;;;;2.45;2.25;;;;;;;9.85;80.08;99009.69;1700965;83;20935;-70
2022/09/24 04:16:01;;;;;;;3.15;1.70;;;;;;;9.85;80.04;99005.17;1704505;83;21042;-68
2022/09/24 04:18:28;;;;;;;1.98;1.87;;;;;;;9.83;79.95;99011.66;1685271;83;20938;-70
2022/09/24 04:20:59;;;;;;;2.30;2.08;;;;;;;9.81;80.00;99021.16;1692371;83;21160;-70
2022/09/24 04:23:27;;;;;;;2.33;2.02;;;;;;;9.77;80.04;99028.33;1689963;83;21018;-69
2022/09/24 04:25:53;;;;;;;3.45;2.72;;;;;;;9.74;80.22;99024.20;1698676;83;21014;-68
2022/09/24 04:28:20;;;;;;;4.50;2.62;;;;;;;9.75;80.36;99022.38;1690511;83;20977;-69
2022/09/24 04:30:46;;;;;;;2.55;2.22;;;;;;;9.75;80.33;99027.16;1697167;83;20996;-69
2022/09/24 04:33:14;;;;;;;4.50;2.17;;;;;;;9.76;80.35;99029.33;1699688;83;21235;-70
2022/09/24 04:35:41;;;;;;;2.67;2.47;;;;;;;9.76;80.38;99027.50;1699294;83;20882;-69
2022/09/24 04:38:08;;;;;;;3.17;2.22;;;;;;;9.79;80.47;99030.30;1694320;83;20980;-69
2022/09/24 04:40:35;;;;;;;3.55;2.67;;;;;;;9.81;80.57;99034.44;1692779;84;21024;-70
2022/09/24 04:43:02;;;;;;;4.10;2.40;;;;;;;9.86;80.68;99029.91;1669563;83;20895;-68
2022/09/24 04:45:31;;;;;;;2.77;2.58;;;;;;;9.91;80.67;99019.58;1681803;83;21211;-69
2022/09/24 04:47:57;;;;;;;2.90;2.60;;;;;;;9.98;80.72;99027.69;1672960;83;20986;-70
2022/09/24 04:50:27;;;;;;;3.83;2.85;;;;;;;10.06;80.76;99026.30;1684166;83;20984;-69
2022/09/24 04:52:55;;;;;;;3.33;2.47;;;;;;;10.16;80.71;99026.91;1677467;83;21496;-69
2022/09/24 04:55:22;;;;;;;3.05;2.60;;;;;;;10.34;80.78;99020.78;1672488;83;21430;-70
2022/09/24 04:57:49;;;;;;;4.80;1.90;;;;;;;10.59;81.07;99024.86;1683554;84;21153;-69
2022/09/24 05:00:18;;;;;;;2.65;2.45;;;;;;;10.82;80.79;99025.61;1677767;84;20993;-70
2022/09/24 05:02:45;;;;;;;2.80;2.58;;;;;;;11.02;80.24;99025.41;1676445;83;20976;-68
2022/09/24 05:05:12;;;;;;;4.10;2.50;;;;;;;11.17;79.53;99030.72;1682593;84;20951;-69
2022/09/24 05:07:40;;;;;;;2.52;2.25;;;;;;;11.32;78.96;99036.02;1675079;83;21518;-69
2022/09/24 05:10:08;;;;;;;3.05;2.62;;;;;;;11.39;78.40;99027.63;1676428;83;21959;-69
2022/09/24 05:12:35;;;;;;;3.35;2.50;;;;;;;11.45;77.86;99028.20;1687888;83;20930;-68
2022/09/24 05:15:03;;;;;;;2.72;1.90;;;;;;;11.51;77.40;99026.13;1681877;83;20950;-69
2022/09/24 05:17:31;;;;;;;3.15;2.85;;;;;;;11.57;76.82;99032.87;1683728;84;20938;-68
2022/09/24 05:19:58;;;;;;;2.50;2.30;;;;;;;11.66;76.35;99036.23;1683044;83;21001;-68
2022/09/24 05:22:26;;;;;;;3.17;2.87;;;;;;;11.67;75.88;99036.56;1684974;84;21192;-68
2022/09/24 05:24:53;;;;;;;3.27;2.98;;;;;;;11.67;75.51;99034.73;1697403;82;21483;-68
2022/09/24 05:27:21;;;;;;;3.02;2.35;;;;;;;11.67;75.14;99033.40;1695057;83;21019;-70
2022/09/24 05:29:49;;;;;;;3.05;2.50;;;;;;;11.69;74.91;99034.06;1697182;83;21044;-70
2022/09/24 05:32:18;;;;;;;2.67;2.47;;;;;;;11.72;74.74;99032.36;1677556;83;20951;-69
2022/09/24 05:34:45;;;;;;;3.25;2.50;;;;;;;11.80;74.55;99032.75;1677964;83;21129;-69
2022/09/24 05:37:12;;;;;;;3.67;2.98;;;;;;;11.90;74.52;99033.27;1697414;82;20968;-67
2022/09/24 05:39:39;;;;;;;4.12;3.10;;;;;;;11.99;74.46;99037.97;1711719;83;21006;-69
2022/09/24 05:42:06;;;;;;;13.75;3.95;;;;;;;12.09;74.25;99036.64;1688479;83;21024;-70
2022/09/24 05:44:33;;;;;;;3.30;2.87;;;;;;;12.19;73.95;99037.15;1661254;84;20907;-68
2022/09/24 05:46:59;;;;;;;3.67;2.98;;;;;;;12.30;73.56;99040.64;1701351;83;21256;-69
2022/09/24 05:49:26;;;;;;;5.60;3.67;;;;;;;12.42;73.13;99045.44;1719311;83;20945;-70
2022/09/24 05:51:52;;;;;;;3.33;3.02;;;;;;;12.51;72.55;99044.30;1704227;83;20950;-69
2022/09/24 05:54:20;;;;;;;3.08;2.87;;;;;;;12.60;72.21;99045.79;1710732;83;21160;-68
2022/09/24 05:56:46;;;;;;;3.12;2.83;;;;;;;12.68;71.88;99048.31;1690431;83;21005;-69
2022/09/24 05:59:13;;;;;;;3.25;3.00;;;;;;;12.72;71.47;99049.59;1703223;83;21314;-69
2022/09/24 06:01:40;;;;;;;7.33;6.62;;;;;;;12.78;71.15;99051.47;1698265;83;21472;-69
2022/09/24 06:04:10;;;;;;;5.60;5.10;;;;;;;12.83;70.75;99046.37;1690575;83;20966;-69
2022/09/24 06:06:38;;;;;;;3.58;3.15;;;;;;;12.88;70.37;99045.27;1690268;83;20998;-68
2022/09/24 06:09:05;;;;;;;3.92;3.42;;;;;;;13.00;70.17;99045.06;1708749;83;21021;-69
2022/09/24 06:11:34;;;;;;;3.70;3.05;;;;;;;13.16;70.07;99051.47;1690237;83;21260;-69
2022/09/24 06:14:03;;;;;;;4.90;2.92;;;;;;;13.42;69.91;99050.77;1696264;83;21009;-69
2022/09/24 06:16:32;;;;;;;4.12;2.77;;;;;;;13.73;69.52;99041.74;1706090;83;20927;-68
2022/09/24 06:18:59;;;;;;;4.08;3.05;;;;;;;14.10;68.87;99045.21;1702057;83;21034;-70
2022/09/24 06:21:26;;;;;;;2.77;2.58;;;;;;;14.55;68.16;99049.51;1713332;83;20970;-70
2022/09/24 06:23:52;;;;;;;3.95;2.83;;;;;;;14.94;67.08;99046.81;1699480;83;21151;-69
2022/09/24 06:26:19;;;;;;;3.55;2.90;;;;;;;15.32;66.07;99045.09;1690461;83;20942;-70
2022/09/24 06:28:45;;;;;;;3.25;2.95;;;;;;;15.63;64.86;99041.70;1706347;83;20950;-69
2022/09/24 06:31:12;;;;;;;3.17;2.67;;;;;;;15.82;63.72;99042.66;1714172;83;20990;-69
2022/09/24 06:33:39;;;;;;;3.15;2.85;;;;;;;15.92;62.50;99047.03;1690824;83;21017;-69
2022/09/24 06:36:07;;;;;;;4.08;2.70;;;;;;;16.00;61.79;99045.44;1690602;83;21272;-68
2022/09/24 06:38:34;;;;;;;2.67;2.42;;;;;;;16.20;60.89;99050.67;1690079;83;21088;-70
2022/09/24 06:41:03;;;;;;;4.22;1.98;;;;;;;16.46;60.26;99051.31;1658885;84;21055;-68
2022/09/24 06:43:32;;;;;;;2.35;2.15;;;;;;;16.92;59.61;99053.63;1680550;84;20922;-69
2022/09/24 06:45:59;;;;;;;4.33;3.20;;;;;;;17.38;58.23;99054.52;1674169;84;20991;-68
2022/09/24 06:48:26;;;;;;;4.60;4.20;;;;;;;17.65;56.97;99053.73;1681194;84;21256;-66
2022/09/24 06:50:56;;;;;;;4.40;3.80;;;;;;;17.88;56.41;99049.80;1674872;84;20945;-69
2022/09/24 06:53:22;;;;;;;3.90;2.83;;;;;;;18.18;55.60;99049.78;1676693;84;20984;-70
2022/09/24 06:55:49;;;;;;;3.27;2.83;;;;;;;18.38;54.17;99055.16;1684421;84;21269;-67
2022/09/24 06:58:19;;;;;;;2.87;2.30;;;;;;;18.32;52.70;99050.72;1687265;84;21001;-69
2022/09/24 07:00:58;;;;;;;2.98;2.60;;;;;;;18.18;52.51;99049.27;1671132;84;21253;-72
2022/09/24 07:03:26;;;;;;;2.30;2.10;;;;;;;18.14;52.50;99046.75;1678303;84;21033;-68
2022/09/24 07:05:53;;;;;;;2.58;2.37;;;;;;;18.19;52.52;99054.13;1672147;84;21506;-69
2022/09/24 07:08:21;;;;;;;2.92;2.60;;;;;;;18.25;52.20;99048.63;1687217;84;21052;-67
2022/09/24 07:10:48;;;;;;;2.67;2.47;;;;;;;18.34;51.68;99049.96;1668236;84;21019;-67
2022/09/24 07:13:15;;;;;;;3.37;2.33;;;;;;;18.47;51.68;99044.92;1680846;85;21163;-68
2022/09/24 07:15:42;;;;;;;3.62;2.60;;;;;;;18.63;51.21;99056.37;1671807;84;20888;-68
2022/09/24 07:18:08;;;;;;;3.00;2.80;;;;;;;18.67;50.69;99054.02;1685659;84;20937;-67
2022/09/24 07:20:35;;;;;;;3.15;2.72;;;;;;;18.61;50.49;99050.41;1668270;84;20955;-67
2022/09/24 07:23:06;;;;;;;3.00;2.70;;;;;;;18.60;50.48;99056.01;1677398;84;21522;-69
2022/09/24 07:25:32;;;;;;;5.47;2.50;;;;;;;18.58;50.33;99055.42;1687253;84;21154;-69
2022/09/24 07:28:08;;;;;;;3.33;2.77;;;;;;;18.52;50.22;99052.30;1674632;84;20979;-70
2022/09/24 07:30:37;;;;;;;3.27;2.85;;;;;;;18.48;50.34;99051.97;1671211;85;20957;-69
2022/09/24 07:33:04;;;;;;;4.90;2.62;;;;;;;18.44;50.62;99052.91;1675779;84;20993;-68
2022/09/24 07:35:31;;;;;;;3.45;2.65;;;;;;;18.43;50.42;99057.98;1669887;84;21089;-68
2022/09/24 07:38:00;;;;;;;2.60;2.40;;;;;;;18.45;50.21;99055.08;1644396;85;21267;-69
2022/09/24 07:40:26;;;;;;;3.12;2.35;;;;;;;18.45;49.73;99057.25;1656341;85;20927;-68
2022/09/24 07:42:54;;;;;;;5.67;2.33;;;;;;;18.51;49.71;99062.25;1631078;87;20974;-68
2022/09/24 07:45:22;;;;;;;3.27;2.30;;;;;;;18.70;49.67;99057.60;1654685;86;21033;-68
2022/09/24 07:48:02;;;;;;;3.98;2.50;;;;;;;18.90;49.19;99052.72;1668727;85;20962;-68
2022/09/24 07:50:31;;;;;;;2.37;2.10;;;;;;;19.05;49.08;99057.11;1668418;86;21740;-68
2022/09/24 07:52:58;;;;;;;2.50;2.20;;;;;;;19.16;48.86;99054.95;1655742;85;21006;-70
2022/09/24 07:55:24;;;;;;;3.72;3.40;;;;;;;19.37;48.86;99058.91;1634150;86;21002;-68
2022/09/24 07:57:53;;;;;;;5.42;4.97;;;;;;;19.63;48.69;99055.73;1649961;85;21021;-67
2022/09/24 08:00:20;;;;;;;4.33;3.45;;;;;;;19.91;48.00;99061.15;1640169;86;21001;-67
2022/09/24 08:02:47;;;;;;;3.90;2.40;;;;;;;20.47;46.66;99065.72;1659016;86;21101;-67
2022/09/24 08:05:16;;;;;;;3.47;2.10;;;;;;;21.27;45.94;99063.53;1650960;85;21538;-68
2022/09/24 08:07:51;;;;;;;2.62;2.02;;;;;;;22.28;43.75;99058.54;1657030;86;21412;-71
2022/09/24 08:10:20;;;;;;;2.50;2.30;;;;;;;22.78;42.12;99054.15;1661192;86;21068;-69
2022/09/24 08:12:47;;;;;;;2.15;1.95;;;;;;;23.21;40.71;99050.66;1668650;86;21085;-69
2022/09/24 08:15:14;;;;;;;2.72;2.00;;;;;;;23.72;39.54;99051.78;1657260;85;21323;-67
2022/09/24 08:17:41;;;;;;;2.25;2.05;;;;;;;23.94;38.97;99047.49;1695774;84;20889;-68
2022/09/24 08:20:09;;;;;;;1.85;1.75;;;;;;;23.74;38.53;99051.50;1689577;84;21011;-68
2022/09/24 08:22:36;;;;;;;2.10;1.90;;;;;;;23.78;38.81;99044.44;1682728;84;21018;-68
2022/09/24 08:25:04;;;;;;;2.27;2.08;;;;;;;24.27;37.63;99040.83;1700135;84;20889;-69
2022/09/24 08:27:35;;;;;;;2.10;1.82;;;;;;;24.76;36.65;99042.48;1696149;84;21164;-68
2022/09/24 08:30:01;;;;;;;2.20;2.00;;;;;;;25.34;35.87;99039.15;1687813;84;21665;-68
2022/09/24 08:32:28;;;;;;;1.82;1.72;;;;;;;25.75;35.09;99038.52;1688138;84;20976;-68
2022/09/24 08:34:55;;;;;;;1.95;1.85;;;;;;;25.73;34.64;99033.33;1702165;84;20945;-68
2022/09/24 08:37:22;;;;;;;1.92;1.77;;;;;;;25.48;34.38;99033.97;1694599;84;20975;-68
2022/09/24 08:39:49;;;;;;;1.77;1.67;;;;;;;25.08;34.50;99039.75;1677876;84;21170;-69
2022/09/24 08:42:45;;;;;;;2.15;1.98;;;;;;;24.58;35.06;99041.67;1688836;84;20941;-68
2022/09/24 08:48:07;;;;;;;2.27;1.62;;;;;;;23.42;36.62;99044.83;1657934;84;21081;-69
2022/09/24 08:50:34;;;;;;;5.22;1.92;;;;;;;23.11;36.95;99050.59;1678154;84;20890;-67
2022/09/24 08:53:24;;;;;;;2.27;2.08;;;;;;;23.55;36.88;99044.36;1682191;85;21139;-67
2022/09/24 08:55:57;;;;;;;1.52;1.42;;;;;;;24.32;35.92;99041.66;1687236;84;20993;-69
2022/09/24 08:58:50;;;;;;;1.50;1.40;;;;;;;25.03;34.72;99028.05;1677173;84;20975;-68
2022/09/24 09:01:34;;;;;;;1.52;1.42;;;;;;;25.75;33.17;99030.34;1674146;84;20930;-69
2022/09/24 09:04:26;;;;;;;1.50;1.40;;;;;;;26.69;32.08;99021.03;1667358;84;20878;-66
2022/09/24 09:07:15;;;;;;;1.95;1.40;;;;;;;27.35;31.04;99028.07;1685007;84;21155;-66
2022/09/24 09:10:12;;;;;;;3.55;1.85;;;;;;;27.86;30.03;99018.17;1673194;84;21472;-67
2022/09/24 09:12:55;;;;;;;1.52;1.30;;;;;;;28.43;29.21;99014.91;1677349;84;20974;-67
2022/09/24 09:15:26;;;;;;;1.42;1.30;;;;;;;29.28;28.21;99016.20;1682679;84;20989;-66
2022/09/24 09:18:20;;;;;;;1.50;1.40;;;;;;;29.01;27.36;99011.22;1675766;84;21082;-66
2022/09/24 09:20:47;;;;;;;1.52;1.42;;;;;;;28.02;27.96;99014.70;1665614;84;21174;-67
2022/09/24 09:23:19;;;;;;;1.52;1.42;;;;;;;27.97;28.22;99017.48;1671891;84;21437;-67
2022/09/24 09:25:57;;;;;;;1.25;1.15;;;;;;;28.74;27.43;99010.59;1673464;84;20930;-67
2022/09/24 09:28:25;;;;;;;1.30;1.20;;;;;;;29.14;27.02;99004.41;1681265;84;21057;-67
2022/09/24 09:31:03;;;;;;;2.42;2.22;;;;;;;28.85;26.64;99012.05;1671014;84;20969;-67
2022/09/24 09:34:00;;;;;;;5.50;3.45;;;;;;;27.99;26.73;99011.16;1686558;84;21236;-67
2022/09/24 09:36:47;;;;;;;;;;;;;;;26.95;27.92;99008.28;1688531;84;20965;-67
2022/09/24 09:39:54;;;;;;;2.00;1.60;;;;;;;26.20;28.68;99007.51;1681960;84;20157;-67
2022/09/24 09:42:31;;;;;;;1.67;1.47;;;;;;;25.91;29.11;99017.45;1684979;83;20988;-70
2022/09/24 09:45:01;;;;;;;0.90;0.80;;;;;;;24.97;29.72;99016.94;1668422;84;21076;-68
2022/09/24 09:47:48;;;;;;;1.57;1.30;;;;;;;24.34;30.41;99015.55;1671722;84;21271;-66
2022/09/24 09:50:52;;;;;;;1.85;1.07;;;;;;;23.64;31.43;99021.06;1670394;84;21007;-65
2022/09/24 09:53:30;;;;;;;1.75;1.37;;;;;;;22.93;32.41;99022.54;1665704;84;20960;-67
2022/09/24 09:56:01;;;;;;;2.10;1.35;;;;;;;22.10;33.72;99032.63;1671312;84;21061;-68
2022/09/24 09:58:31;;;;;;;2.08;1.60;;;;;;;21.58;35.00;99028.22;1677634;85;20937;-67
2022/09/24 10:01:14;;;;;;;3.75;1.45;;;;;;;21.19;35.94;99032.02;1686681;84;21963;-68
2022/09/24 10:03:51;;;;;;;3.25;2.08;;;;;;;21.07;36.60;99040.75;1663153;84;20944;-68
2022/09/24 10:06:28;;;;;;;1.37;1.27;;;;;;;21.08;37.11;99028.35;1686542;84;20915;-67
2022/09/24 10:09:20;;;;;;;7.65;2.35;;;;;;;20.96;37.61;99038.43;1674710;84;20995;-67
2022/09/24 10:11:47;;;;;;;1.57;1.37;;;;;;;20.71;37.80;99028.03;1663925;84;21038;-67
2022/09/24 10:14:17;;;;;;;1.67;1.30;;;;;;;20.46;38.34;99026.27;1681748;84;21230;-64
2022/09/24 10:16:45;;;;;;;1.30;1.20;;;;;;;20.22;38.50;99034.18;1673024;84;20949;-67
2022/09/24 10:19:24;;;;;;;1.42;1.30;;;;;;;19.92;38.86;99032.28;1687251;84;20882;-67
2022/09/24 10:21:51;;;;;;;1.80;1.20;;;;;;;19.59;39.19;99039.19;1676640;84;20954;-67
2022/09/24 10:24:21;;;;;;;1.40;1.27;;;;;;;19.28;39.57;99036.05;1687213;84;20910;-66
2022/09/24 10:26:47;;;;;;;4.22;1.80;;;;;;;19.01;40.13;99030.31;1674210;84;21130;-67
2022/09/24 10:32:03;;;;;;;1.72;1.60;;;;;;;18.60;41.42;99033.11;1670471;84;20918;-66
2022/09/24 10:34:30;;;;;;;1.40;1.30;;;;;;;18.54;42.00;99033.51;1674545;84;21068;-67
2022/09/24 10:37:01;;;;;;;1.40;1.30;;;;;;;18.69;42.00;99027.69;1668320;85;21561;-67
2022/09/24 10:39:29;;;;;;;3.85;1.70;;;;;;;18.83;41.46;99032.61;1671378;85;21879;-67
2022/09/24 10:41:56;;;;;;;2.42;1.60;;;;;;;18.89;41.39;99027.64;1696154;83;20950;-66
2022/09/24 10:44:26;;;;;;;1.70;1.35;;;;;;;18.92;41.02;99040.66;1702170;83;21118;-68
2022/09/24 10:47:13;;;;;;;1.42;1.10;;;;;;;19.04;41.47;99035.24;1713595;83;21060;-67
2022/09/24 10:50:04;;;;;;;2.98;1.22;;;;;;;19.30;40.88;99028.53;1704142;83;20899;-66
2022/09/24 10:53:07;;;;;;;2.65;1.10;;;;;;;19.70;40.40;99025.37;1704995;83;21166;-68
2022/09/24 10:56:14;;;;;;;1.57;1.47;;;;;;;20.20;39.64;99026.86;1688902;83;20903;-70
2022/09/24 10:59:20;;;;;;;1.98;1.87;;;;;;;20.65;38.92;99024.16;1703232;83;21010;-67
2022/09/24 11:02:32;;;;;;;3.40;2.30;;;;;;;20.98;38.35;99019.23;1704405;83;21604;-67
2022/09/24 11:05:07;;;;;;;1.67;1.57;;;;;;;21.23;37.85;99019.63;1704027;83;21521;-67
2022/09/24 11:08:01;;;;;;;1.30;1.20;;;;;;;21.51;37.03;99016.73;1711178;83;21404;-66
2022/09/24 11:10:45;;;;;;;2.50;1.20;;;;;;;21.68;36.50;99022.92;1690230;83;20998;-67
2022/09/24 11:13:42;;;;;;;0.93;0.90;;;;;;;21.73;36.24;99026.22;1695550;83;20956;-67
2022/09/24 11:17:03;;;;;;;2.62;1.55;;;;;;;21.81;35.72;99021.19;1710324;83;20965;-66
2022/09/24 11:19:44;;;;;;;1.70;1.57;;;;;;;21.93;35.21;99021.05;1686295;83;21523;-66
2022/09/24 11:22:14;;;;;;;2.33;1.30;;;;;;;22.03;35.03;99019.27;1699533;83;21270;-67
2022/09/24 11:25:14;;;;;;;2.12;1.37;;;;;;;22.23;34.78;99016.50;1686019;83;21460;-67
2022/09/24 11:28:22;;;;;;;1.52;1.30;;;;;;;22.44;34.87;99022.39;1686574;83;21496;-66
2022/09/24 11:31:07;;;;;;;;;;;;;;;22.73;35.03;99019.69;1638967;83;21017;-67
2022/09/24 11:34:04;;;;;;;4.33;1.20;;;;;;;22.95;34.17;99023.62;1707928;83;20128;-65
2022/09/24 11:36:42;;;;;;;1.32;1.10;;;;;;;22.88;33.74;99015.72;1706134;83;21317;-66
2022/09/24 11:39:32;;;;;;;1.92;0.85;;;;;;;22.78;33.60;99019.72;1713935;83;21009;-67
2022/09/24 11:42:22;;;;;;;1.20;1.10;;;;;;;22.72;33.60;99019.40;1677854;83;21019;-68
2022/09/24 11:45:12;;;;;;;1.05;0.90;;;;;;;22.74;33.36;99019.95;1670143;84;20953;-68
2022/09/24 11:47:50;;;;;;;1.15;1.05;;;;;;;22.74;33.29;99015.88;1650558;84;20985;-67
2022/09/24 11:50:42;;;;;;;1.35;1.00;;;;;;;22.72;33.23;99013.44;1673739;84;21172;-68
2022/09/24 11:53:42;;;;;;;2.70;1.40;;;;;;;22.60;33.37;99016.81;1680277;84;20985;-67
2022/09/24 11:56:24;;;;;;;1.47;1.07;;;;;;;22.47;33.68;99010.51;1672179;84;20981;-68
2022/09/24 11:59:15;;;;;;;2.17;1.00;;;;;;;22.27;33.92;99021.67;1687293;84;21644;-68
2022/09/24 12:01:47;;;;;;;2.27;1.00;;;;;;;22.11;34.24;99022.88;1673071;84;21461;-69
2022/09/24 12:04:31;;;;;;;2.45;1.10;;;;;;;22.01;33.60;99020.60;1666928;84;21106;-67
2022/09/24 12:07:05;;;;;;;3.20;1.72;;;;;;;21.78;33.41;99028.45;1682681;84;20938;-67
2022/09/24 12:09:40;;;;;;;1.40;1.30;;;;;;;21.58;33.80;99031.45;1681211;84;21061;-68
2022/09/24 12:12:18;;;;;;;2.08;1.57;;;;;;;21.37;34.10;99025.79;1659551;85;21000;-67